Time;durP1;ratioP1;P1;durP2;ratioP2;P2;SDS_P1;SDS_P2;PMS_P1;PMS_P2;Temp;Humidity;BMP_temperature;BMP_pressure;BME280_temperature;BME280_humidity;BME280_pressure;Samples;Min_cycle;Max_cycle;Signal;HPM_P1;HPM_P2
2023/10/04 00:00:33;;;;;;;;;;;;;;;;;;5010835;28;1212;-63
2023/10/04 00:03:00;;;;;;;;;;;;;;;;;;5009676;28;4924;-62
2023/10/04 00:05:25;;;;;;;;;;;;;;;;;;5004274;28;5042;-63
2023/10/04 00:07:51;;;;;;;;;;;;;;;;;;5008682;28;5038;-63
2023/10/04 00:10:17;;;;;;;;;;;;;;;;;;5009520;28;4673;-63
2023/10/04 00:12:42;;;;;;;;;;;;;;;;;;4991434;28;1228;-65
2023/10/04 00:15:14;;;;;;;;;;;;;;;;;;5004793;28;5127;-62
2023/10/04 00:17:42;;;;;;;;;;;;;;;;;;5008783;28;4485;-63
2023/10/04 00:20:13;;;;;;;;;;;;;;;;;;5009512;28;4854;-62
2023/10/04 00:22:39;;;;;;;;;;;;;;;;;;5009404;28;4642;-63
2023/10/04 00:25:05;;;;;;;;;;;;;;;;;;5006324;28;4985;-63
2023/10/04 00:27:30;;;;;;;;;;;;;;;;;;5008231;28;3255;-63
2023/10/04 00:29:56;;;;;;;;;;;;;;;;;;5001526;28;4582;-63
2023/10/04 00:32:21;;;;;;;;;;;;;;;;;;5002525;28;4971;-63
2023/10/04 00:34:46;;;;;;;;;;;;;;;;;;5008185;28;4692;-63
2023/10/04 00:37:12;;;;;;;;;;;;;;;;;;5006042;28;5137;-63
2023/10/04 00:39:38;;;;;;;;;;;;;;;;;;4998911;28;1537;-63
2023/10/04 00:42:03;;;;;;;;;;;;;;;;;;4986030;28;4621;-63
2023/10/04 00:44:33;;;;;;;;;;;;;;;;;;5002709;28;5494;-63
2023/10/04 00:46:58;;;;;;;;;;;;;;;;;;5006194;28;4892;-63
2023/10/04 00:49:24;;;;;;;;;;;;;;;;;;5022287;28;4592;-63
2023/10/04 00:51:49;;;;;;;;;;;;;;;;;;5004665;28;1610;-63
2023/10/04 00:54:15;;;;;;;;;;;;;;;;;;4998646;28;4879;-63
2023/10/04 00:56:41;;;;;;;;;;;;;;;;;;5003762;28;4918;-63
2023/10/04 00:59:07;;;;;;;;;;;;;;;;;;5015926;28;4476;-63
2023/10/04 01:01:32;;;;;;;;;;;;;;;;;;5002022;28;4738;-63
2023/10/04 01:04:00;;;;;;;;;;;;;;;;;;5007628;28;5107;-63
2023/10/04 01:06:26;;;;;;;;;;;;;;;;;;5004915;28;2258;-63
2023/10/04 01:08:51;;;;;;;;;;;;;;;;;;5000960;28;4993;-63
2023/10/04 01:11:16;;;;;;;;;;;;;;;;;;5008933;28;5061;-64
2023/10/04 01:13:42;;;;;;;;;;;;;;;;;;5008702;28;5011;-63
2023/10/04 01:16:09;;;;;;;;;;;;;;;;;;5006165;28;4835;-63
2023/10/04 01:18:35;;;;;;;;;;;;;;;;;;4990922;28;3318;-63
2023/10/04 01:21:00;;;;;;;;;;;;;;;;;;5002181;28;4576;-63
2023/10/04 01:23:25;;;;;;;;;;;;;;;;;;5002339;28;4721;-63
2023/10/04 01:25:51;;;;;;;;;;;;;;;;;;5005166;28;4569;-63
2023/10/04 01:28:39;;;;;;;;;;;;;;;;;;5004956;28;4588;-63
2023/10/04 01:31:02;;;;;;;;;;;;;;;;;;5000190;28;5098;-52
2023/10/04 01:33:28;;;;;;;;;;;;;;;;;;5008060;28;1495;-61
2023/10/04 01:35:53;;;;;;;;;;;;;;;;;;5007349;28;4616;-64
2023/10/04 01:38:25;;;;;;;;;;;;;;;;;;5023319;28;4991;-64
2023/10/04 01:40:50;;;;;;;;;;;;;;;;;;5000097;28;4436;-63
2023/10/04 01:43:16;;;;;;;;;;;;;;;;;;5000508;28;5093;-64
2023/10/04 01:45:48;;;;;;;;;;;;;;;;;;5005234;28;2055;-63
2023/10/04 01:48:17;;;;;;;;;;;;;;;;;;5001811;28;4941;-63
2023/10/04 01:50:43;;;;;;;;;;;;;;;;;;4997524;28;5039;-65
2023/10/04 01:53:09;;;;;;;;;;;;;;;;;;5021542;28;4947;-63
2023/10/04 01:55:35;;;;;;;;;;;;;;;;;;5005276;28;4942;-63
2023/10/04 01:58:00;;;;;;;;;;;;;;;;;;5005153;28;5152;-63
2023/10/04 02:00:28;;;;;;;;;;;;;;;;;;5007923;28;3210;-63
2023/10/04 02:02:53;;;;;;;;;;;;;;;;;;5001767;28;4458;-63
2023/10/04 02:05:22;;;;;;;;;;;;;;;;;;5006046;28;5133;-62
2023/10/04 02:07:47;;;;;;;;;;;;;;;;;;5004601;28;5335;-65
2023/10/04 02:10:17;;;;;;;;;;;;;;;;;;5006652;28;4902;-65
2023/10/04 02:12:42;;;;;;;;;;;;;;;;;;5007610;28;1124;-66
2023/10/04 02:15:10;;;;;;;;;;;;;;;;;;5007746;28;4437;-63
2023/10/04 02:17:35;;;;;;;;;;;;;;;;;;4997233;28;4611;-64
2023/10/04 02:20:01;;;;;;;;;;;;;;;;;;5006781;28;5168;-64
2023/10/04 02:22:28;;;;;;;;;;;;;;;;;;5007809;28;5111;-63
2023/10/04 02:24:53;;;;;;;;;;;;;;;;;;5001173;28;4942;-64
2023/10/04 02:27:19;;;;;;;;;;;;;;;;;;5000538;28;1095;-63
2023/10/04 02:29:46;;;;;;;;;;;;;;;;;;5016939;28;5157;-63
2023/10/04 02:32:13;;;;;;;;;;;;;;;;;;5006190;28;4910;-63
2023/10/04 02:34:38;;;;;;;;;;;;;;;;;;5006840;28;4853;-64
2023/10/04 02:37:07;;;;;;;;;;;;;;;;;;5007300;28;4949;-64
2023/10/04 02:39:38;;;;;;;;;;;;;;;;;;4997115;28;3305;-63
2023/10/04 02:42:09;;;;;;;;;;;;;;;;;;5005361;28;4892;-63
2023/10/04 02:44:38;;;;;;;;;;;;;;;;;;5003356;28;4426;-64
2023/10/04 02:47:06;;;;;;;;;;;;;;;;;;4997094;28;4441;-63
2023/10/04 02:49:33;;;;;;;;;;;;;;;;;;5005394;28;5230;-64
2023/10/04 02:51:59;;;;;;;;;;;;;;;;;;5005118;28;5080;-64
2023/10/04 02:54:24;;;;;;;;;;;;;;;;;;5003337;28;2072;-63
2023/10/04 02:56:50;;;;;;;;;;;;;;;;;;5007258;28;5091;-63
2023/10/04 02:59:16;;;;;;;;;;;;;;;;;;4999766;28;4610;-63
2023/10/04 03:01:42;;;;;;;;;;;;;;;;;;5003412;28;4566;-64
2023/10/04 03:04:09;;;;;;;;;;;;;;;;;;5003697;28;5312;-63
2023/10/04 03:06:35;;;;;;;;;;;;;;;;;;5007814;28;1297;-63
2023/10/04 03:09:00;;;;;;;;;;;;;;;;;;4989504;28;4685;-63
2023/10/04 03:11:27;;;;;;;;;;;;;;;;;;5007325;28;5030;-62
2023/10/04 03:13:52;;;;;;;;;;;;;;;;;;5002954;28;4648;-64
2023/10/04 03:16:17;;;;;;;;;;;;;;;;;;4990074;28;4488;-62
2023/10/04 03:18:44;;;;;;;;;;;;;;;;;;5007072;28;3428;-63
2023/10/04 03:21:20;;;;;;;;;;;;;;;;;;5007520;28;5019;-63
2023/10/04 03:23:45;;;;;;;;;;;;;;;;;;5007377;28;5496;-63
2023/10/04 03:26:12;;;;;;;;;;;;;;;;;;5021844;28;5036;-63
2023/10/04 03:28:37;;;;;;;;;;;;;;;;;;5002270;28;4464;-65
2023/10/04 03:31:08;;;;;;;;;;;;;;;;;;5007398;28;5090;-63
2023/10/04 03:33:35;;;;;;;;;;;;;;;;;;4997892;28;1408;-64
2023/10/04 03:36:04;;;;;;;;;;;;;;;;;;5007976;28;4997;-63
2023/10/04 03:38:33;;;;;;;;;;;;;;;;;;5010312;28;4987;-63
2023/10/04 03:40:58;;;;;;;;;;;;;;;;;;5007901;28;5222;-63
2023/10/04 03:43:24;;;;;;;;;;;;;;;;;;5004158;28;4644;-62
2023/10/04 03:45:50;;;;;;;;;;;;;;;;;;5003776;28;1342;-62
2023/10/04 03:48:15;;;;;;;;;;;;;;;;;;5008163;28;4915;-63
2023/10/04 03:50:45;;;;;;;;;;;;;;;;;;5003858;28;4643;-64
2023/10/04 03:53:10;;;;;;;;;;;;;;;;;;5010431;28;5044;-64
2023/10/04 03:55:36;;;;;;;;;;;;;;;;;;5003199;28;4431;-64
2023/10/04 03:58:02;;;;;;;;;;;;;;;;;;5004429;28;5038;-64
2023/10/04 04:00:30;;;;;;;;;;;;;;;;;;5010079;28;3261;-63
2023/10/04 04:02:56;;;;;;;;;;;;;;;;;;5009797;28;4612;-64
2023/10/04 04:05:22;;;;;;;;;;;;;;;;;;5009064;28;4983;-62
2023/10/04 04:07:48;;;;;;;;;;;;;;;;;;5008105;28;4425;-63
2023/10/04 04:10:14;;;;;;;;;;;;;;;;;;4999055;28;4751;-65
2023/10/04 04:12:40;;;;;;;;;;;;;;;;;;5010503;28;1074;-63
2023/10/04 04:15:08;;;;;;;;;;;;;;;;;;5024443;28;5264;-63
2023/10/04 04:17:34;;;;;;;;;;;;;;;;;;5008690;28;4963;-66
2023/10/04 04:19:59;;;;;;;;;;;;;;;;;;5009081;28;4939;-61
2023/10/04 04:22:25;;;;;;;;;;;;;;;;;;5005298;28;4664;-63
2023/10/04 04:24:51;;;;;;;;;;;;;;;;;;5004460;28;1415;-63
2023/10/04 04:27:22;;;;;;;;;;;;;;;;;;5005506;28;4767;-62
2023/10/04 04:29:48;;;;;;;;;;;;;;;;;;5006014;28;4938;-62
2023/10/04 04:32:15;;;;;;;;;;;;;;;;;;5003084;28;4935;-64
2023/10/04 04:34:42;;;;;;;;;;;;;;;;;;5007487;28;4873;-63
2023/10/04 04:37:08;;;;;;;;;;;;;;;;;;5003610;28;5086;-65
2023/10/04 04:39:33;;;;;;;;;;;;;;;;;;4998502;28;1619;-63
2023/10/04 04:41:59;;;;;;;;;;;;;;;;;;5008856;28;5071;-63
2023/10/04 04:44:33;;;;;;;;;;;;;;;;;;4990956;28;5149;-63
2023/10/04 04:46:59;;;;;;;;;;;;;;;;;;4998095;28;5139;-63
2023/10/04 04:49:24;;;;;;;;;;;;;;;;;;5000416;28;4481;-62
2023/10/04 04:51:50;;;;;;;;;;;;;;;;;;5002811;28;3410;-62
2023/10/04 04:54:18;;;;;;;;;;;;;;;;;;5001069;28;5084;-62
2023/10/04 04:56:43;;;;;;;;;;;;;;;;;;5005248;28;5028;-64
2023/10/04 04:59:09;;;;;;;;;;;;;;;;;;5000860;28;5089;-62
2023/10/04 05:01:34;;;;;;;;;;;;;;;;;;5003937;28;4630;-62
2023/10/04 05:04:00;;;;;;;;;;;;;;;;;;5000171;28;5019;-61
2023/10/04 05:06:27;;;;;;;;;;;;;;;;;;5013409;28;1600;-62
2023/10/04 05:08:54;;;;;;;;;;;;;;;;;;5005722;28;4945;-62
2023/10/04 05:11:19;;;;;;;;;;;;;;;;;;5002165;28;4539;-63
2023/10/04 05:13:45;;;;;;;;;;;;;;;;;;4998191;28;5025;-64
2023/10/04 05:16:10;;;;;;;;;;;;;;;;;;5006612;28;4554;-63
2023/10/04 05:18:37;;;;;;;;;;;;;;;;;;5001942;28;1173;-63
2023/10/04 05:21:04;;;;;;;;;;;;;;;;;;4995944;28;5084;-63
2023/10/04 05:23:29;;;;;;;;;;;;;;;;;;5000850;28;5098;-63
2023/10/04 05:25:54;;;;;;;;;;;;;;;;;;4999794;28;5101;-63
2023/10/04 05:28:20;;;;;;;;;;;;;;;;;;5004577;28;5074;-64
2023/10/04 05:30:45;;;;;;;;;;;;;;;;;;5003185;28;3278;-63
2023/10/04 05:33:18;;;;;;;;;;;;;;;;;;5006208;28;4548;-63
2023/10/04 05:35:44;;;;;;;;;;;;;;;;;;5000948;28;5035;-63
2023/10/04 05:38:14;;;;;;;;;;;;;;;;;;5002571;28;4682;-63
2023/10/04 05:40:43;;;;;;;;;;;;;;;;;;5001140;28;5004;-63
2023/10/04 05:43:08;;;;;;;;;;;;;;;;;;5000855;28;5088;-63
2023/10/04 05:45:34;;;;;;;;;;;;;;;;;;5008044;28;1200;-62
2023/10/04 05:47:59;;;;;;;;;;;;;;;;;;5004023;28;4982;-62
2023/10/04 05:50:25;;;;;;;;;;;;;;;;;;5017948;28;4735;-62
2023/10/04 05:52:51;;;;;;;;;;;;;;;;;;5007623;28;4877;-63
2023/10/04 05:55:19;;;;;;;;;;;;;;;;;;5003600;28;5157;-63
2023/10/04 05:57:48;;;;;;;;;;;;;;;;;;5006435;28;4833;-64
2023/10/04 06:00:23;;;;;;;;;;;;;;;;;;5005168;28;4598;-64
2023/10/04 06:02:55;;;;;;;;;;;;;;;;;;4999069;28;4994;-63
2023/10/04 06:05:22;;;;;;;;;;;;;;;;;;5004877;28;5074;-63
2023/10/04 06:07:47;;;;;;;;;;;;;;;;;;4996544;28;5119;-64
2023/10/04 06:10:14;;;;;;;;;;;;;;;;;;5001105;28;4996;-63
2023/10/04 06:12:39;;;;;;;;;;;;;;;;;;5007968;28;1311;-63
2023/10/04 06:15:10;;;;;;;;;;;;;;;;;;4996703;28;5452;-63
2023/10/04 06:17:38;;;;;;;;;;;;;;;;;;5002982;28;5267;-64
2023/10/04 06:20:22;;;;;;;;;;;;;;;;;;5006120;28;5015;-63
2023/10/04 06:22:49;;;;;;;;;;;;;;;;;;5003713;28;4934;-66
2023/10/04 06:25:15;;;;;;;;;;;;;;;;;;4993067;28;5021;-63
2023/10/04 06:27:40;;;;;;;;;;;;;;;;;;5006852;28;3381;-62
2023/10/04 06:30:06;;;;;;;;;;;;;;;;;;5004623;28;4759;-63
2023/10/04 06:32:37;;;;;;;;;;;;;;;;;;4999738;28;5066;-63
2023/10/04 06:35:02;;;;;;;;;;;;;;;;;;5007165;28;5110;-63
2023/10/04 06:37:28;;;;;;;;;;;;;;;;;;4998423;28;5160;-65
2023/10/04 06:39:54;;;;;;;;;;;;;;;;;;4985050;28;4484;-65
2023/10/04 06:42:19;;;;;;;;;;;;;;;;;;5003745;28;1919;-63
2023/10/04 06:44:45;;;;;;;;;;;;;;;;;;4994214;28;4466;-64
2023/10/04 06:47:10;;;;;;;;;;;;;;;;;;5006633;28;5850;-64
2023/10/04 06:49:35;;;;;;;;;;;;;;;;;;5004845;28;4999;-64
2023/10/04 06:52:01;;;;;;;;;;;;;;;;;;5006440;28;4486;-64
2023/10/04 06:54:26;;;;;;;;;;;;;;;;;;5017698;28;3198;-64
2023/10/04 06:56:51;;;;;;;;;;;;;;;;;;5003591;28;5317;-64
2023/10/04 06:59:17;;;;;;;;;;;;;;;;;;5004742;28;4474;-66
2023/10/04 07:01:43;;;;;;;;;;;;;;;;;;5007935;28;4477;-64
2023/10/04 07:04:08;;;;;;;;;;;;;;;;;;5009319;28;5274;-64
2023/10/04 07:06:34;;;;;;;;;;;;;;;;;;5012911;28;3296;-47
2023/10/04 07:08:59;;;;;;;;;;;;;;;;;;5004144;28;5063;-49
2023/10/04 07:11:25;;;;;;;;;;;;;;;;;;5002710;28;5080;-48
2023/10/04 07:13:51;;;;;;;;;;;;;;;;;;5009183;28;5014;-49
2023/10/04 07:16:16;;;;;;;;;;;;;;;;;;4992640;28;5060;-49
2023/10/04 07:18:41;;;;;;;;;;;;;;;;;;5009703;28;1113;-50
2023/10/04 07:21:07;;;;;;;;;;;;;;;;;;5008968;28;5019;-48
2023/10/04 07:23:32;;;;;;;;;;;;;;;;;;5010141;28;5102;-49
2023/10/04 07:25:58;;;;;;;;;;;;;;;;;;5007857;28;4427;-49
2023/10/04 07:28:24;;;;;;;;;;;;;;;;;;5004590;28;4756;-51
2023/10/04 07:30:50;;;;;;;;;;;;;;;;;;4990508;28;3278;-49
2023/10/04 07:33:16;;;;;;;;;;;;;;;;;;5007748;28;5016;-51
2023/10/04 07:35:41;;;;;;;;;;;;;;;;;;5004651;28;5056;-48
2023/10/04 07:38:07;;;;;;;;;;;;;;;;;;5007941;28;4866;-46
2023/10/04 07:40:32;;;;;;;;;;;;;;;;;;5004511;28;4529;-47
2023/10/04 07:42:59;;;;;;;;;;;;;;;;;;5004857;28;5361;-48
2023/10/04 07:45:30;;;;;;;;;;;;;;;;;;4993193;28;2049;-47
2023/10/04 07:47:56;;;;;;;;;;;;;;;;;;5006692;28;4939;-48
2023/10/04 07:50:28;;;;;;;;;;;;;;;;;;5004494;28;4471;-48
2023/10/04 07:53:04;;;;;;;;;;;;;;;;;;5021030;28;5053;-48
2023/10/04 07:55:29;;;;;;;;;;;;;;;;;;5008279;28;5182;-48
2023/10/04 07:58:01;;;;;;;;;;;;;;;;;;5005241;28;5032;-48
2023/10/04 08:00:26;;;;;;;;;;;;;;;;;;5006949;28;3191;-50
2023/10/04 08:02:51;;;;;;;;;;;;;;;;;;5007869;28;5016;-49
2023/10/04 08:05:21;;;;;;;;;;;;;;;;;;5007241;28;5069;-51
2023/10/04 08:07:48;;;;;;;;;;;;;;;;;;5008045;28;5105;-52
2023/10/04 08:10:13;;;;;;;;;;;;;;;;;;5007881;28;4921;-51
2023/10/04 08:12:39;;;;;;;;;;;;;;;;;;5009191;28;3199;-50
2023/10/04 08:15:07;;;;;;;;;;;;;;;;;;5006328;28;4762;-50
2023/10/04 08:17:32;;;;;;;;;;;;;;;;;;5000660;28;4992;-52
2023/10/04 08:19:58;;;;;;;;;;;;;;;;;;5007930;28;5183;-50
2023/10/04 08:22:24;;;;;;;;;;;;;;;;;;5007328;28;5085;-50
2023/10/04 08:24:49;;;;;;;;;;;;;;;;;;5006038;28;3268;-51
2023/10/04 08:27:16;;;;;;;;;;;;;;;;;;5003151;28;4608;-50
2023/10/04 08:29:43;;;;;;;;;;;;;;;;;;5010827;28;5165;-53
2023/10/04 08:32:08;;;;;;;;;;;;;;;;;;5018756;28;4558;-52
2023/10/04 08:34:33;;;;;;;;;;;;;;;;;;4991052;28;5089;-52
2023/10/04 08:36:59;;;;;;;;;;;;;;;;;;4996729;28;4913;-49
2023/10/04 08:39:24;;;;;;;;;;;;;;;;;;5006742;28;3198;-48
2023/10/04 08:41:49;;;;;;;;;;;;;;;;;;5009115;28;4907;-48
2023/10/04 08:44:15;;;;;;;;;;;;;;;;;;4996777;28;4526;-53
2023/10/04 08:46:41;;;;;;;;;;;;;;;;;;5002208;28;4496;-51
2023/10/04 08:49:07;;;;;;;;;;;;;;;;;;5016248;28;4648;-53
2023/10/04 08:51:38;;;;;;;;;;;;;;;;;;5007641;28;1128;-53
2023/10/04 08:54:10;;;;;;;;;;;;;;;;;;5006981;28;5056;-49
2023/10/04 08:56:38;;;;;;;;;;;;;;;;;;4997524;28;5004;-52
2023/10/04 08:59:04;;;;;;;;;;;;;;;;;;5006249;28;5092;-49
2023/10/04 09:01:29;;;;;;;;;;;;;;;;;;5003309;28;4448;-50
2023/10/04 09:03:54;;;;;;;;;;;;;;;;;;5010466;28;4642;-51
2023/10/04 09:06:20;;;;;;;;;;;;;;;;;;5018055;28;1244;-50
2023/10/04 09:08:49;;;;;;;;;;;;;;;;;;5004652;28;5128;-52
2023/10/04 09:11:17;;;;;;;;;;;;;;;;;;5007851;28;5145;-50
2023/10/04 09:13:47;;;;;;;;;;;;;;;;;;4999756;28;4846;-50
2023/10/04 09:16:23;;;;;;;;;;;;;;;;;;5006112;28;5153;-50
2023/10/04 09:18:48;;;;;;;;;;;;;;;;;;4994732;28;1112;-53
2023/10/04 09:21:14;;;;;;;;;;;;;;;;;;5004168;28;5121;-51
2023/10/04 09:23:40;;;;;;;;;;;;;;;;;;4999781;28;5198;-53
2023/10/04 09:26:13;;;;;;;;;;;;;;;;;;4999959;28;4577;-54
2023/10/04 09:28:39;;;;;;;;;;;;;;;;;;5001911;28;4989;-51
2023/10/04 09:31:08;;;;;;;;;;;;;;;;;;5001683;28;4993;-50
2023/10/04 09:33:34;;;;;;;;;;;;;;;;;;5000926;28;1514;-50
2023/10/04 09:35:59;;;;;;;;;;;;;;;;;;4999008;28;5037;-52
2023/10/04 09:38:25;;;;;;;;;;;;;;;;;;5002463;28;5355;-53
2023/10/04 09:40:54;;;;;;;;;;;;;;;;;;5000575;28;5067;-53
2023/10/04 09:43:32;;;;;;;;;;;;;;;;;;5000442;28;4511;-53
2023/10/04 09:45:58;;;;;;;;;;;;;;;;;;5017822;28;4529;-49
2023/10/04 09:48:25;;;;;;;;;;;;;;;;;;5007118;28;1139;-51
2023/10/04 09:50:56;;;;;;;;;;;;;;;;;;5006157;28;4793;-53
2023/10/04 09:53:22;;;;;;;;;;;;;;;;;;5020414;28;5062;-53
2023/10/04 09:55:47;;;;;;;;;;;;;;;;;;5006912;28;5146;-53
2023/10/04 09:58:13;;;;;;;;;;;;;;;;;;5006047;28;4944;-50
2023/10/04 10:00:38;;;;;;;;;;;;;;;;;;4990262;28;1114;-53
2023/10/04 10:03:04;;;;;;;;;;;;;;;;;;5004511;28;4449;-52
2023/10/04 10:05:31;;;;;;;;;;;;;;;;;;5005941;28;4988;-52
2023/10/04 10:08:04;;;;;;;;;;;;;;;;;;4988534;28;4988;-50
2023/10/04 10:10:30;;;;;;;;;;;;;;;;;;5005902;28;4986;-52
2023/10/04 10:12:56;;;;;;;;;;;;;;;;;;5003204;28;4704;-51
2023/10/04 10:15:21;;;;;;;;;;;;;;;;;;5016150;28;1628;-50
2023/10/04 10:17:46;;;;;;;;;;;;;;;;;;5005759;28;4690;-50
2023/10/04 10:20:12;;;;;;;;;;;;;;;;;;5005646;28;5008;-50
2023/10/04 10:22:57;;;;;;;;;;;;;;;;;;5020463;28;4500;-51
2023/10/04 10:25:23;;;;;;;;;;;;;;;;;;5001725;28;4991;-51
2023/10/04 10:27:48;;;;;;;;;;;;;;;;;;4998391;28;1299;-48
2023/10/04 10:30:16;;;;;;;;;;;;;;;;;;4998786;28;4422;-51
2023/10/04 10:33:12;;;;;;;;;;;;;;;;;;5004509;28;4493;-49
2023/10/04 10:35:48;;;;;;;;;;;;;;;;;;4995227;28;4976;-49
2023/10/04 10:38:32;;;;;;;;;;;;;;;;;;5001349;28;4513;-48
2023/10/04 10:40:58;;;;;;;;;;;;;;;;;;5017861;28;5150;-49
2023/10/04 10:43:23;;;;;;;;;;;;;;;;;;5009636;28;5144;-51
2023/10/04 10:45:48;;;;;;;;;;;;;;;;;;5011247;28;1439;-51
2023/10/04 10:48:14;;;;;;;;;;;;;;;;;;5008379;28;4802;-49
2023/10/04 10:50:42;;;;;;;;;;;;;;;;;;5003549;28;5174;-50
2023/10/04 10:53:10;;;;;;;;;;;;;;;;;;5011070;28;5217;-49
2023/10/04 10:55:35;;;;;;;;;;;;;;;;;;5005028;28;4457;-52
2023/10/04 10:58:03;;;;;;;;;;;;;;;;;;5023297;28;5539;-49
2023/10/04 11:00:32;;;;;;;;;;;;;;;;;;5010911;28;1332;-49
2023/10/04 11:03:01;;;;;;;;;;;;;;;;;;5010258;28;5115;-51
2023/10/04 11:05:26;;;;;;;;;;;;;;;;;;5003565;28;5007;-48
2023/10/04 11:07:52;;;;;;;;;;;;;;;;;;5008418;28;5065;-48
2023/10/04 11:10:19;;;;;;;;;;;;;;;;;;4991420;28;4998;-48
2023/10/04 11:12:46;;;;;;;;;;;;;;;;;;5004273;28;1202;-52
2023/10/04 11:15:11;;;;;;;;;;;;;;;;;;5007598;28;5302;-50
2023/10/04 11:17:37;;;;;;;;;;;;;;;;;;5010309;28;5160;-48
2023/10/04 11:20:09;;;;;;;;;;;;;;;;;;5004889;28;5141;-50
2023/10/04 11:22:36;;;;;;;;;;;;;;;;;;5005843;28;5113;-51
2023/10/04 11:25:01;;;;;;;;;;;;;;;;;;4990784;28;5500;-48
2023/10/04 11:27:27;;;;;;;;;;;;;;;;;;5007560;28;1409;-49
2023/10/04 11:29:52;;;;;;;;;;;;;;;;;;5002821;28;4467;-49
2023/10/04 11:32:17;;;;;;;;;;;;;;;;;;5019739;28;4871;-49
2023/10/04 11:34:43;;;;;;;;;;;;;;;;;;5000450;28;4994;-53
2023/10/04 11:37:09;;;;;;;;;;;;;;;;;;5022742;28;5308;-59
2023/10/04 11:39:34;;;;;;;;;;;;;;;;;;5000142;28;3416;-59
2023/10/04 11:42:00;;;;;;;;;;;;;;;;;;4994225;28;5334;-62
2023/10/04 11:44:26;;;;;;;;;;;;;;;;;;4988910;28;5222;-60
2023/10/04 11:46:56;;;;;;;;;;;;;;;;;;5006354;28;5040;-60
2023/10/04 11:49:21;;;;;;;;;;;;;;;;;;5003116;28;5117;-61
2023/10/04 11:51:47;;;;;;;;;;;;;;;;;;5008900;28;1280;-59
2023/10/04 11:54:12;;;;;;;;;;;;;;;;;;5002355;28;4843;-60
2023/10/04 11:56:39;;;;;;;;;;;;;;;;;;5006848;28;4833;-60
2023/10/04 11:59:04;;;;;;;;;;;;;;;;;;5005871;28;4590;-61
2023/10/04 12:01:29;;;;;;;;;;;;;;;;;;5007384;28;5150;-61
2023/10/04 12:03:56;;;;;;;;;;;;;;;;;;5003497;28;5107;-61
2023/10/04 12:06:24;;;;;;;;;;;;;;;;;;5005001;28;1117;-61
2023/10/04 12:08:50;;;;;;;;;;;;;;;;;;5008109;28;4538;-61
2023/10/04 12:11:21;;;;;;;;;;;;;;;;;;5007786;28;5107;-60
2023/10/04 12:13:47;;;;;;;;;;;;;;;;;;5004459;28;5009;-60
2023/10/04 12:16:13;;;;;;;;;;;;;;;;;;5020081;28;5069;-60
2023/10/04 12:18:38;;;;;;;;;;;;;;;;;;5008810;28;1248;-61
2023/10/04 12:21:03;;;;;;;;;;;;;;;;;;5003624;28;4990;-60
2023/10/04 12:23:30;;;;;;;;;;;;;;;;;;5005542;28;5095;-60
2023/10/04 12:25:55;;;;;;;;;;;;;;;;;;4987458;28;4983;-60
2023/10/04 12:28:21;;;;;;;;;;;;;;;;;;5006174;28;4989;-61
2023/10/04 12:30:48;;;;;;;;;;;;;;;;;;5007936;28;3210;-60
2023/10/04 12:33:13;;;;;;;;;;;;;;;;;;5007151;28;4469;-57
2023/10/04 12:35:38;;;;;;;;;;;;;;;;;;5004008;28;4554;-62
2023/10/04 12:38:04;;;;;;;;;;;;;;;;;;5006528;28;5138;-63
2023/10/04 12:40:29;;;;;;;;;;;;;;;;;;5006160;28;5073;-62
2023/10/04 12:42:54;;;;;;;;;;;;;;;;;;5022727;28;4531;-65
2023/10/04 12:45:20;;;;;;;;;;;;;;;;;;5005573;28;3326;-63
2023/10/04 12:47:45;;;;;;;;;;;;;;;;;;5007542;28;4973;-62
2023/10/04 12:50:17;;;;;;;;;;;;;;;;;;5005157;28;4649;-61
2023/10/04 12:52:43;;;;;;;;;;;;;;;;;;5006322;28;5051;-62
2023/10/04 12:55:08;;;;;;;;;;;;;;;;;;5006075;28;4969;-62
2023/10/04 12:57:34;;;;;;;;;;;;;;;;;;5007763;28;5004;-62
2023/10/04 13:00:00;;;;;;;;;;;;;;;;;;4987388;28;4548;-62
2023/10/04 13:02:25;;;;;;;;;;;;;;;;;;5004095;28;4955;-62
2023/10/04 13:04:51;;;;;;;;;;;;;;;;;;5005240;28;5109;-62
2023/10/04 13:07:17;;;;;;;;;;;;;;;;;;5005973;28;5170;-62
2023/10/04 13:09:46;;;;;;;;;;;;;;;;;;5018510;28;1068;-62
2023/10/04 13:12:11;;;;;;;;;;;;;;;;;;5004617;28;4820;-66
2023/10/04 13:14:37;;;;;;;;;;;;;;;;;;5003107;28;4556;-62
2023/10/04 13:17:02;;;;;;;;;;;;;;;;;;4983351;28;4777;-61
2023/10/04 13:19:28;;;;;;;;;;;;;;;;;;5006944;28;5268;-61
2023/10/04 13:21:57;;;;;;;;;;;;;;;;;;5005184;28;4985;-65
2023/10/04 13:24:23;;;;;;;;;;;;;;;;;;5005439;28;3345;-66
2023/10/04 13:26:48;;;;;;;;;;;;;;;;;;5004791;28;5000;-63
2023/10/04 13:29:14;;;;;;;;;;;;;;;;;;5003270;28;5195;-61
2023/10/04 13:31:39;;;;;;;;;;;;;;;;;;5021368;28;5087;-62
2023/10/04 13:34:05;;;;;;;;;;;;;;;;;;5005071;28;5075;-61
2023/10/04 13:36:31;;;;;;;;;;;;;;;;;;5003766;28;1300;-61
2023/10/04 13:38:56;;;;;;;;;;;;;;;;;;4988172;28;5012;-63
2023/10/04 13:41:22;;;;;;;;;;;;;;;;;;5002901;28;4927;-63
2023/10/04 13:43:48;;;;;;;;;;;;;;;;;;5004390;28;5219;-63
2023/10/04 13:46:14;;;;;;;;;;;;;;;;;;5002914;28;5058;-62
2023/10/04 13:48:41;;;;;;;;;;;;;;;;;;4999329;28;2187;-61
2023/10/04 13:51:07;;;;;;;;;;;;;;;;;;5005480;28;4982;-61
2023/10/04 13:53:34;;;;;;;;;;;;;;;;;;5006633;28;4936;-64
2023/10/04 13:56:00;;;;;;;;;;;;;;;;;;4988649;28;5089;-63
2023/10/04 13:58:25;;;;;;;;;;;;;;;;;;5004233;28;5240;-65
2023/10/04 14:00:54;;;;;;;;;;;;;;;;;;5007296;28;3175;-62
2023/10/04 14:03:19;;;;;;;;;;;;;;;;;;4988036;28;5200;-66
2023/10/04 14:05:44;;;;;;;;;;;;;;;;;;5005941;28;4867;-63
2023/10/04 14:08:11;;;;;;;;;;;;;;;;;;5002314;28;5101;-64
2023/10/04 14:10:36;;;;;;;;;;;;;;;;;;5006783;28;5097;-63
2023/10/04 14:13:02;;;;;;;;;;;;;;;;;;5002468;28;4501;-63
2023/10/04 14:15:28;;;;;;;;;;;;;;;;;;5004546;28;3055;-63
2023/10/04 14:17:54;;;;;;;;;;;;;;;;;;4996095;28;5063;-66
2023/10/04 14:20:20;;;;;;;;;;;;;;;;;;4986461;28;4895;-64
2023/10/04 14:22:46;;;;;;;;;;;;;;;;;;5005173;28;4658;-63
2023/10/04 14:25:12;;;;;;;;;;;;;;;;;;4997063;28;4504;-64
2023/10/04 14:27:38;;;;;;;;;;;;;;;;;;4999323;28;3353;-62
2023/10/04 14:30:08;;;;;;;;;;;;;;;;;;5003864;28;4674;-66
2023/10/04 14:32:34;;;;;;;;;;;;;;;;;;4996040;28;5044;-64
2023/10/04 14:34:59;;;;;;;;;;;;;;;;;;4999383;28;4862;-65
2023/10/04 14:37:25;;;;;;;;;;;;;;;;;;5003857;28;4690;-63
2023/10/04 14:39:50;;;;;;;;;;;;;;;;;;4998440;28;3368;-63
2023/10/04 14:42:15;;;;;;;;;;;;;;;;;;4993577;28;4386;-63
2023/10/04 14:44:42;;;;;;;;;;;;;;;;;;5003197;28;5350;-63
2023/10/04 14:47:08;;;;;;;;;;;;;;;;;;5003277;28;5543;-61
2023/10/04 14:49:33;;;;;;;;;;;;;;;;;;5000640;28;5107;-65
2023/10/04 14:51:58;;;;;;;;;;;;;;;;;;4995378;28;5040;-62
2023/10/04 14:54:25;;;;;;;;;;;;;;;;;;5002047;28;3353;-62
2023/10/04 14:56:50;;;;;;;;;;;;;;;;;;5002906;28;5133;-63
2023/10/04 14:59:15;;;;;;;;;;;;;;;;;;4999659;28;4486;-62
2023/10/04 15:01:40;;;;;;;;;;;;;;;;;;4999830;28;5070;-50
2023/10/04 15:04:06;;;;;;;;;;;;;;;;;;5001210;28;4873;-51
2023/10/04 15:06:31;;;;;;;;;;;;;;;;;;5003362;28;3412;-51
2023/10/04 15:08:56;;;;;;;;;;;;;;;;;;5002697;28;5192;-51
2023/10/04 15:11:33;;;;;;;;;;;;;;;;;;5002797;28;4472;-52
2023/10/04 15:13:58;;;;;;;;;;;;;;;;;;4999975;28;4669;-49
2023/10/04 15:16:24;;;;;;;;;;;;;;;;;;5000840;28;5065;-49
2023/10/04 15:18:49;;;;;;;;;;;;;;;;;;4999594;28;3619;-50
2023/10/04 15:21:15;;;;;;;;;;;;;;;;;;5000960;28;4515;-49
2023/10/04 15:23:40;;;;;;;;;;;;;;;;;;5004077;28;5036;-49
2023/10/04 15:26:09;;;;;;;;;;;;;;;;;;5002673;28;4921;-50
2023/10/04 15:28:35;;;;;;;;;;;;;;;;;;5013461;28;4725;-49
2023/10/04 15:31:01;;;;;;;;;;;;;;;;;;4990510;28;5119;-51
2023/10/04 15:33:26;;;;;;;;;;;;;;;;;;5003110;28;1329;-49
2023/10/04 15:35:51;;;;;;;;;;;;;;;;;;4997616;28;4996;-50
2023/10/04 15:38:16;;;;;;;;;;;;;;;;;;5003939;28;4713;-52
2023/10/04 15:40:42;;;;;;;;;;;;;;;;;;5000015;28;5138;-50
2023/10/04 15:43:17;;;;;;;;;;;;;;;;;;5000272;28;4530;-49
2023/10/04 15:45:42;;;;;;;;;;;;;;;;;;5000478;28;3265;-49
2023/10/04 15:48:11;;;;;;;;;;;;;;;;;;5004760;28;4506;-51
2023/10/04 15:50:37;;;;;;;;;;;;;;;;;;5000585;28;4479;-56
2023/10/04 15:53:03;;;;;;;;;;;;;;;;;;5005410;28;5288;-46
2023/10/04 15:55:28;;;;;;;;;;;;;;;;;;5006130;28;4955;-46
2023/10/04 15:57:54;;;;;;;;;;;;;;;;;;5003395;28;5032;-46
2023/10/04 16:03:20;;;;;;;;;;;;;;;;;;4941214;28;4815;-50
2023/10/04 16:05:46;;;;;;;;;;;;;;;;;;4971053;28;5051;-58
2023/10/04 16:08:11;;;;;;;;;;;;;;;;;;4974466;28;5369;-59
2023/10/04 16:10:37;;;;;;;;;;;;;;;;;;4979937;28;5103;-59
2023/10/04 16:13:04;;;;;;;;;;;;;;;;;;4964911;28;4851;-60
2023/10/04 16:15:29;;;;;;;;;;;;;;;;;;4963965;28;3643;-58
2023/10/04 16:17:54;;;;;;;;;;;;;;;;;;4980333;28;5055;-58
2023/10/04 16:20:20;;;;;;;;;;;;;;;;;;4982691;28;4479;-59
2023/10/04 16:22:49;;;;;;;;;;;;;;;;;;4979217;28;4912;-57
2023/10/04 16:25:14;;;;;;;;;;;;;;;;;;5003495;28;5250;-60
2023/10/04 16:27:43;;;;;;;;;;;;;;;;;;4983684;28;3600;-47
2023/10/04 16:30:09;;;;;;;;;;;;;;;;;;4983815;28;4830;-60
2023/10/04 16:32:35;;;;;;;;;;;;;;;;;;4981521;28;4527;-61
2023/10/04 16:35:00;;;;;;;;;;;;;;;;;;4980247;28;5121;-63
2023/10/04 16:37:26;;;;;;;;;;;;;;;;;;4978912;28;4912;-62
2023/10/04 16:39:51;;;;;;;;;;;;;;;;;;4986137;28;3691;-64
2023/10/04 16:42:16;;;;;;;;;;;;;;;;;;4988687;28;4877;-61
2023/10/04 16:44:42;;;;;;;;;;;;;;;;;;4965076;28;4874;-61
2023/10/04 16:47:07;;;;;;;;;;;;;;;;;;4983595;28;5355;-49
2023/10/04 16:49:32;;;;;;;;;;;;;;;;;;4982293;28;5838;-51
2023/10/04 16:51:57;;;;;;;;;;;;;;;;;;4983353;28;4763;-49
2023/10/04 16:54:23;;;;;;;;;;;;;;;;;;4983023;28;3333;-48
2023/10/04 16:56:49;;;;;;;;;;;;;;;;;;4979652;28;5035;-55
2023/10/04 16:59:15;;;;;;;;;;;;;;;;;;4981281;28;4488;-52
2023/10/04 17:01:43;;;;;;;;;;;;;;;;;;4984206;28;5061;-52